Time;durP1;ratioP1;P1;durP2;ratioP2;P2;SDS_P1;SDS_P2;PMS_P1;PMS_P2;Temp;Humidity;BMP_temperature;BMP_pressure;BME280_temperature;BME280_humidity;BME280_pressure;Samples;Min_cycle;Max_cycle;Signal;HPM_P1;HPM_P2
2021/07/08 00:00:56;;;;;;;;;;;;;;;;;;1450791;41;7013;-67
2021/07/08 00:01:59;;;;;;;;;;;;;;;;;;1450767;41;7008;-68
2021/07/08 00:03:02;;;;;;;;;;;;;;;;;;1450664;41;7940;-67
2021/07/08 00:04:05;;;;;;;;;;;;;;;;;;1450699;41;7008;-67
2021/07/08 00:05:12;;;;;;;;;;;;;;;;;;1450460;41;7052;-67
2021/07/08 00:06:14;;;;;;;;;;;;;;;;;;1450510;41;7017;-67
2021/07/08 00:07:17;;;;;;;;;;;;;;;;;;1450302;41;7017;-67
2021/07/08 00:08:19;;;;;;;;;;;;;;;;;;1450402;41;7012;-68
2021/07/08 00:09:22;;;;;;;;;;;;;;;;;;1450540;41;7076;-67
2021/07/08 00:10:29;;;;;;;;;;;;;;;;;;1445921;41;7008;-68
2021/07/08 00:11:32;;;;;;;;;;;;;;;;;;1446891;41;7948;-67
2021/07/08 00:12:34;;;;;;;;;;;;;;;;;;1449900;41;7012;-67
2021/07/08 00:13:37;;;;;;;;;;;;;;;;;;1450390;41;7004;-67
2021/07/08 00:14:39;;;;;;;;;;;;;;;;;;1450447;41;7009;-68
2021/07/08 00:15:42;;;;;;;;;;;;;;;;;;1450658;41;7040;-67
2021/07/08 00:16:44;;;;;;;;;;;;;;;;;;1450586;41;7009;-68
2021/07/08 00:17:48;;;;;;;;;;;;;;;;;;1451005;41;7021;-68
2021/07/08 00:18:52;;;;;;;;;;;;;;;;;;1450900;41;7032;-68
2021/07/08 00:19:55;;;;;;;;;;;;;;;;;;1451053;41;7016;-67
2021/07/08 00:20:57;;;;;;;;;;;;;;;;;;1450262;41;7004;-67
2021/07/08 00:22:00;;;;;;;;;;;;;;;;;;1450241;41;7000;-67
2021/07/08 00:23:02;;;;;;;;;;;;;;;;;;1449831;41;7961;-67
2021/07/08 00:24:05;;;;;;;;;;;;;;;;;;1449936;41;7000;-67
2021/07/08 00:25:10;;;;;;;;;;;;;;;;;;1449902;41;7028;-67
2021/07/08 00:26:13;;;;;;;;;;;;;;;;;;1450359;41;7032;-67
2021/07/08 00:27:15;;;;;;;;;;;;;;;;;;1450308;41;7048;-67
2021/07/08 00:28:18;;;;;;;;;;;;;;;;;;1450149;41;7048;-67
2021/07/08 00:29:20;;;;;;;;;;;;;;;;;;1450160;41;7352;-67
2021/07/08 00:30:23;;;;;;;;;;;;;;;;;;1450032;41;7048;-68
2021/07/08 00:31:26;;;;;;;;;;;;;;;;;;1449952;41;7016;-67
2021/07/08 00:32:28;;;;;;;;;;;;;;;;;;1450500;41;7004;-68
2021/07/08 00:33:31;;;;;;;;;;;;;;;;;;1449926;41;7009;-67
2021/07/08 00:34:33;;;;;;;;;;;;;;;;;;1449299;41;7111;-67
2021/07/08 00:35:36;;;;;;;;;;;;;;;;;;1450367;41;6996;-67
2021/07/08 00:36:39;;;;;;;;;;;;;;;;;;1450736;41;7032;-67
2021/07/08 00:37:42;;;;;;;;;;;;;;;;;;1450674;41;7386;-67
2021/07/08 00:38:44;;;;;;;;;;;;;;;;;;1450369;41;7000;-68
2021/07/08 00:39:47;;;;;;;;;;;;;;;;;;1449717;41;7000;-68
2021/07/08 00:40:49;;;;;;;;;;;;;;;;;;1449967;41;7021;-68
2021/07/08 00:41:51;;;;;;;;;;;;;;;;;;1450186;41;7040;-68
2021/07/08 00:42:54;;;;;;;;;;;;;;;;;;1450417;41;7009;-68
2021/07/08 00:43:56;;;;;;;;;;;;;;;;;;1450628;41;7243;-67
2021/07/08 00:44:59;;;;;;;;;;;;;;;;;;1450280;41;7269;-68
2021/07/08 00:46:04;;;;;;;;;;;;;;;;;;1450318;41;7933;-68
2021/07/08 00:47:06;;;;;;;;;;;;;;;;;;1450232;41;7142;-68
2021/07/08 00:48:09;;;;;;;;;;;;;;;;;;1450246;40;7293;-68
2021/07/08 00:49:11;;;;;;;;;;;;;;;;;;1449934;41;7036;-69
2021/07/08 00:50:15;;;;;;;;;;;;;;;;;;1450156;41;7009;-68
2021/07/08 00:51:18;;;;;;;;;;;;;;;;;;1450333;41;7000;-68
2021/07/08 00:52:20;;;;;;;;;;;;;;;;;;1450426;41;7934;-68
2021/07/08 00:53:26;;;;;;;;;;;;;;;;;;1450685;41;7213;-67
2021/07/08 00:54:29;;;;;;;;;;;;;;;;;;1450691;41;7191;-68
2021/07/08 00:55:31;;;;;;;;;;;;;;;;;;1450761;41;7044;-68
2021/07/08 00:56:35;;;;;;;;;;;;;;;;;;1449668;41;7028;-67
2021/07/08 00:57:41;;;;;;;;;;;;;;;;;;1450536;41;7036;-68
2021/07/08 00:59:00;;;;;;;;;;;;;;;;;;1450180;41;7008;-68
2021/07/08 01:00:04;;;;;;;;;;;;;;;;;;1450730;41;7951;-68
2021/07/08 01:01:06;;;;;;;;;;;;;;;;;;1450368;41;8033;-68
2021/07/08 01:02:11;;;;;;;;;;;;;;;;;;1450987;41;7008;-67
2021/07/08 01:03:14;;;;;;;;;;;;;;;;;;1450742;41;7071;-68
2021/07/08 01:04:18;;;;;;;;;;;;;;;;;;1450991;41;7004;-67
2021/07/08 01:05:22;;;;;;;;;;;;;;;;;;1450740;41;7918;-68
2021/07/08 01:06:26;;;;;;;;;;;;;;;;;;1450761;41;7009;-67
2021/07/08 01:07:28;;;;;;;;;;;;;;;;;;1449937;41;7012;-68
2021/07/08 01:08:31;;;;;;;;;;;;;;;;;;1449983;41;7032;-68
2021/07/08 01:09:33;;;;;;;;;;;;;;;;;;1450092;41;7008;-68
2021/07/08 01:10:36;;;;;;;;;;;;;;;;;;1445758;41;7163;-68
2021/07/08 01:11:38;;;;;;;;;;;;;;;;;;1446007;41;7032;-68
2021/07/08 01:12:41;;;;;;;;;;;;;;;;;;1450117;41;7004;-67
2021/07/08 01:13:44;;;;;;;;;;;;;;;;;;1450526;41;7039;-68
2021/07/08 01:14:46;;;;;;;;;;;;;;;;;;1450815;41;7948;-68
2021/07/08 01:15:49;;;;;;;;;;;;;;;;;;1450699;41;7036;-68
2021/07/08 01:16:52;;;;;;;;;;;;;;;;;;1450969;41;7039;-67
2021/07/08 01:17:54;;;;;;;;;;;;;;;;;;1449924;41;7004;-68
2021/07/08 01:18:57;;;;;;;;;;;;;;;;;;1450457;41;7913;-68
2021/07/08 01:19:59;;;;;;;;;;;;;;;;;;1450294;41;7004;-68
2021/07/08 01:21:20;;;;;;;;;;;;;;;;;;1449957;41;7064;-67
2021/07/08 01:22:22;;;;;;;;;;;;;;;;;;1450590;41;7016;-67
2021/07/08 01:23:25;;;;;;;;;;;;;;;;;;1449743;41;7080;-68
2021/07/08 01:24:27;;;;;;;;;;;;;;;;;;1449942;41;7871;-67
2021/07/08 01:25:32;;;;;;;;;;;;;;;;;;1450131;41;7004;-67
2021/07/08 01:26:37;;;;;;;;;;;;;;;;;;1449921;41;7214;-68
2021/07/08 01:27:40;;;;;;;;;;;;;;;;;;1449727;41;7016;-68
2021/07/08 01:28:43;;;;;;;;;;;;;;;;;;1450188;41;7032;-68
2021/07/08 01:29:46;;;;;;;;;;;;;;;;;;1448974;41;7012;-68
2021/07/08 01:30:48;;;;;;;;;;;;;;;;;;1450069;41;7044;-68
2021/07/08 01:31:51;;;;;;;;;;;;;;;;;;1450142;41;7031;-68
2021/07/08 01:32:55;;;;;;;;;;;;;;;;;;1450261;41;7040;-68
2021/07/08 01:33:58;;;;;;;;;;;;;;;;;;1450312;41;7005;-67
2021/07/08 01:35:01;;;;;;;;;;;;;;;;;;1449248;41;8033;-68
2021/07/08 01:36:03;;;;;;;;;;;;;;;;;;1450111;41;7004;-68
2021/07/08 01:37:06;;;;;;;;;;;;;;;;;;1450323;41;7017;-67
2021/07/08 01:38:08;;;;;;;;;;;;;;;;;;1450215;41;7048;-67
2021/07/08 01:39:11;;;;;;;;;;;;;;;;;;1450150;41;7007;-68
2021/07/08 01:40:14;;;;;;;;;;;;;;;;;;1450429;41;7008;-68
2021/07/08 01:41:17;;;;;;;;;;;;;;;;;;1450054;41;7044;-67
2021/07/08 01:42:20;;;;;;;;;;;;;;;;;;1449769;41;7004;-67
2021/07/08 01:43:22;;;;;;;;;;;;;;;;;;1449763;41;7004;-68
2021/07/08 01:44:25;;;;;;;;;;;;;;;;;;1450172;41;7957;-68
2021/07/08 01:45:27;;;;;;;;;;;;;;;;;;1450262;41;7032;-68
2021/07/08 01:46:29;;;;;;;;;;;;;;;;;;1450346;41;7004;-68
2021/07/08 01:47:32;;;;;;;;;;;;;;;;;;1450678;41;7012;-68
2021/07/08 01:48:36;;;;;;;;;;;;;;;;;;1450666;41;7004;-67
2021/07/08 01:49:38;;;;;;;;;;;;;;;;;;1450485;41;7040;-69
2021/07/08 01:50:41;;;;;;;;;;;;;;;;;;1450358;41;7045;-68
2021/07/08 01:51:45;;;;;;;;;;;;;;;;;;1449418;41;7004;-68
2021/07/08 01:52:48;;;;;;;;;;;;;;;;;;1450296;41;7032;-67
2021/07/08 01:53:51;;;;;;;;;;;;;;;;;;1450305;41;7008;-68
2021/07/08 01:54:54;;;;;;;;;;;;;;;;;;1450184;41;7060;-67
2021/07/08 01:55:57;;;;;;;;;;;;;;;;;;1450574;41;7000;-68
2021/07/08 01:57:00;;;;;;;;;;;;;;;;;;1450329;41;7933;-67
2021/07/08 01:58:02;;;;;;;;;;;;;;;;;;1450534;41;7005;-68
2021/07/08 01:59:05;;;;;;;;;;;;;;;;;;1450058;41;7221;-67
2021/07/08 02:00:10;;;;;;;;;;;;;;;;;;1451110;40;7119;-69
2021/07/08 02:01:13;;;;;;;;;;;;;;;;;;1451050;40;7004;-68
2021/07/08 02:02:16;;;;;;;;;;;;;;;;;;1451640;40;7004;-68
2021/07/08 02:03:18;;;;;;;;;;;;;;;;;;1451460;40;7028;-67
2021/07/08 02:04:21;;;;;;;;;;;;;;;;;;1451627;40;7898;-68
2021/07/08 02:05:23;;;;;;;;;;;;;;;;;;1451648;40;7000;-68
2021/07/08 02:06:25;;;;;;;;;;;;;;;;;;1451775;40;7008;-68
2021/07/08 02:07:28;;;;;;;;;;;;;;;;;;1451396;40;7000;-68
2021/07/08 02:08:30;;;;;;;;;;;;;;;;;;1451053;40;7012;-68
2021/07/08 02:09:33;;;;;;;;;;;;;;;;;;1451592;40;7048;-67
2021/07/08 02:10:35;;;;;;;;;;;;;;;;;;1451719;40;7000;-67
2021/07/08 02:11:38;;;;;;;;;;;;;;;;;;1451653;40;7008;-68
2021/07/08 02:12:41;;;;;;;;;;;;;;;;;;1452007;40;7021;-67
2021/07/08 02:13:44;;;;;;;;;;;;;;;;;;1451977;40;7000;-66
2021/07/08 02:14:46;;;;;;;;;;;;;;;;;;1452139;40;7007;-67
2021/07/08 02:15:49;;;;;;;;;;;;;;;;;;1451246;40;7009;-67
2021/07/08 02:16:52;;;;;;;;;;;;;;;;;;1451821;40;7214;-68
2021/07/08 02:17:54;;;;;;;;;;;;;;;;;;1451360;40;7036;-68
2021/07/08 02:18:57;;;;;;;;;;;;;;;;;;1451285;40;7004;-67
2021/07/08 02:20:00;;;;;;;;;;;;;;;;;;1450909;40;7819;-67
2021/07/08 02:21:03;;;;;;;;;;;;;;;;;;1450875;40;7205;-68
2021/07/08 02:22:05;;;;;;;;;;;;;;;;;;1451277;40;7340;-68
2021/07/08 02:23:08;;;;;;;;;;;;;;;;;;1450833;40;7060;-68
2021/07/08 02:24:10;;;;;;;;;;;;;;;;;;1450244;40;7000;-68
2021/07/08 02:25:13;;;;;;;;;;;;;;;;;;1450961;40;7013;-67
2021/07/08 02:26:17;;;;;;;;;;;;;;;;;;1450822;40;7036;-68
2021/07/08 02:27:19;;;;;;;;;;;;;;;;;;1451382;40;7004;-67
2021/07/08 02:28:21;;;;;;;;;;;;;;;;;;1450790;40;7032;-67
2021/07/08 02:29:24;;;;;;;;;;;;;;;;;;1451508;40;7013;-68
2021/07/08 02:30:26;;;;;;;;;;;;;;;;;;1451079;40;7185;-67
2021/07/08 02:31:29;;;;;;;;;;;;;;;;;;1451143;40;7009;-68
2021/07/08 02:32:31;;;;;;;;;;;;;;;;;;1451176;40;7981;-68
2021/07/08 02:33:34;;;;;;;;;;;;;;;;;;1451520;40;7052;-68
2021/07/08 02:34:37;;;;;;;;;;;;;;;;;;1450787;40;7307;-68
2021/07/08 02:35:40;;;;;;;;;;;;;;;;;;1451360;40;7040;-68
2021/07/08 02:36:42;;;;;;;;;;;;;;;;;;1451602;40;7956;-67
2021/07/08 02:37:45;;;;;;;;;;;;;;;;;;1451672;40;7184;-68
2021/07/08 02:38:48;;;;;;;;;;;;;;;;;;1450740;40;7217;-68
2021/07/08 02:39:50;;;;;;;;;;;;;;;;;;1450668;40;7036;-68
2021/07/08 02:40:53;;;;;;;;;;;;;;;;;;1451443;40;7053;-67
2021/07/08 02:41:55;;;;;;;;;;;;;;;;;;1451696;40;7017;-67
2021/07/08 02:42:58;;;;;;;;;;;;;;;;;;1451846;40;7177;-67
2021/07/08 02:44:02;;;;;;;;;;;;;;;;;;1451738;40;7044;-68
2021/07/08 02:45:07;;;;;;;;;;;;;;;;;;1452100;40;7008;-69
2021/07/08 02:46:09;;;;;;;;;;;;;;;;;;1451151;40;7001;-67
2021/07/08 02:47:12;;;;;;;;;;;;;;;;;;1451763;40;7000;-67
2021/07/08 02:48:17;;;;;;;;;;;;;;;;;;1450291;40;7000;-68
2021/07/08 02:49:19;;;;;;;;;;;;;;;;;;1451790;40;7000;-68
2021/07/08 02:50:23;;;;;;;;;;;;;;;;;;1451501;40;7008;-68
2021/07/08 02:51:26;;;;;;;;;;;;;;;;;;1451140;40;7047;-67
2021/07/08 02:52:28;;;;;;;;;;;;;;;;;;1451720;40;7287;-68
2021/07/08 02:53:31;;;;;;;;;;;;;;;;;;1450314;40;7000;-68
2021/07/08 02:54:34;;;;;;;;;;;;;;;;;;1451464;40;7931;-68
2021/07/08 02:55:36;;;;;;;;;;;;;;;;;;1452045;40;7021;-68
2021/07/08 02:56:39;;;;;;;;;;;;;;;;;;1451981;40;7032;-68
2021/07/08 02:57:45;;;;;;;;;;;;;;;;;;1451487;40;7067;-68
2021/07/08 02:58:48;;;;;;;;;;;;;;;;;;1451762;40;8008;-68
2021/07/08 02:59:50;;;;;;;;;;;;;;;;;;1451739;40;7008;-68
2021/07/08 03:00:52;;;;;;;;;;;;;;;;;;1450247;40;7001;-68
2021/07/08 03:01:55;;;;;;;;;;;;;;;;;;1451159;40;7008;-68
2021/07/08 03:02:58;;;;;;;;;;;;;;;;;;1451765;40;7000;-68
2021/07/08 03:04:00;;;;;;;;;;;;;;;;;;1451409;40;7017;-68
2021/07/08 03:05:03;;;;;;;;;;;;;;;;;;1451628;40;7121;-68
2021/07/08 03:06:06;;;;;;;;;;;;;;;;;;1450920;40;7009;-68
2021/07/08 03:07:08;;;;;;;;;;;;;;;;;;1451930;40;7239;-68
2021/07/08 03:08:11;;;;;;;;;;;;;;;;;;1450475;40;7000;-68
2021/07/08 03:09:13;;;;;;;;;;;;;;;;;;1451441;40;7044;-67
2021/07/08 03:10:18;;;;;;;;;;;;;;;;;;1451162;40;7009;-68
2021/07/08 03:11:23;;;;;;;;;;;;;;;;;;1451058;40;7944;-68
2021/07/08 03:12:25;;;;;;;;;;;;;;;;;;1450508;41;7000;-67
2021/07/08 03:13:28;;;;;;;;;;;;;;;;;;1450595;41;7008;-68
2021/07/08 03:14:30;;;;;;;;;;;;;;;;;;1450876;41;7012;-68
2021/07/08 03:15:33;;;;;;;;;;;;;;;;;;1450804;41;6997;-67
2021/07/08 03:16:36;;;;;;;;;;;;;;;;;;1450861;41;7120;-69
2021/07/08 03:17:39;;;;;;;;;;;;;;;;;;1450913;41;7005;-68
2021/07/08 03:18:41;;;;;;;;;;;;;;;;;;1451091;41;7291;-67
2021/07/08 03:19:44;;;;;;;;;;;;;;;;;;1450129;41;8112;-68
2021/07/08 03:20:47;;;;;;;;;;;;;;;;;;1450669;41;7000;-68
2021/07/08 03:21:50;;;;;;;;;;;;;;;;;;1450531;41;7004;-67
2021/07/08 03:22:53;;;;;;;;;;;;;;;;;;1450338;41;7009;-68
2021/07/08 03:23:56;;;;;;;;;;;;;;;;;;1450440;41;7952;-68
2021/07/08 03:24:58;;;;;;;;;;;;;;;;;;1450558;41;7187;-68
2021/07/08 03:26:02;;;;;;;;;;;;;;;;;;1450476;41;7021;-67
2021/07/08 03:27:04;;;;;;;;;;;;;;;;;;1450678;41;7021;-68
2021/07/08 03:28:07;;;;;;;;;;;;;;;;;;1449852;41;7052;-68
2021/07/08 03:29:09;;;;;;;;;;;;;;;;;;1450404;41;7008;-68
2021/07/08 03:30:13;;;;;;;;;;;;;;;;;;1450406;41;7908;-68
2021/07/08 03:31:18;;;;;;;;;;;;;;;;;;1450334;41;7279;-67
2021/07/08 03:32:21;;;;;;;;;;;;;;;;;;1450287;41;7008;-67
2021/07/08 03:33:24;;;;;;;;;;;;;;;;;;1450471;41;7056;-67
2021/07/08 03:34:26;;;;;;;;;;;;;;;;;;1450462;41;7048;-67
2021/07/08 03:35:29;;;;;;;;;;;;;;;;;;1450359;41;7040;-68
2021/07/08 03:36:31;;;;;;;;;;;;;;;;;;1450944;41;7024;-68
2021/07/08 03:37:34;;;;;;;;;;;;;;;;;;1450483;41;7059;-68
2021/07/08 03:38:36;;;;;;;;;;;;;;;;;;1450122;41;7111;-67
2021/07/08 03:39:39;;;;;;;;;;;;;;;;;;1449858;41;7005;-68
2021/07/08 03:40:42;;;;;;;;;;;;;;;;;;1450318;41;7000;-68
2021/07/08 03:41:44;;;;;;;;;;;;;;;;;;1450585;41;7016;-68
2021/07/08 03:42:49;;;;;;;;;;;;;;;;;;1450751;41;7017;-68
2021/07/08 03:43:53;;;;;;;;;;;;;;;;;;1450487;41;7977;-67
2021/07/08 03:44:55;;;;;;;;;;;;;;;;;;1450629;41;7004;-68
2021/07/08 03:45:57;;;;;;;;;;;;;;;;;;1450999;41;7013;-69
2021/07/08 03:47:00;;;;;;;;;;;;;;;;;;1450397;41;7004;-68
2021/07/08 03:48:03;;;;;;;;;;;;;;;;;;1450886;41;7044;-68
2021/07/08 03:49:05;;;;;;;;;;;;;;;;;;1450453;41;7000;-68
2021/07/08 03:50:09;;;;;;;;;;;;;;;;;;1450589;41;7000;-67
2021/07/08 03:51:11;;;;;;;;;;;;;;;;;;1450625;41;7004;-68
2021/07/08 03:52:14;;;;;;;;;;;;;;;;;;1450894;41;7017;-67
2021/07/08 03:53:16;;;;;;;;;;;;;;;;;;1450248;41;7269;-68
2021/07/08 03:54:18;;;;;;;;;;;;;;;;;;1451309;41;7024;-68
2021/07/08 03:55:21;;;;;;;;;;;;;;;;;;1450733;41;7409;-68
2021/07/08 03:56:24;;;;;;;;;;;;;;;;;;1450330;41;7000;-67
2021/07/08 03:57:26;;;;;;;;;;;;;;;;;;1450777;41;7013;-68
2021/07/08 03:58:29;;;;;;;;;;;;;;;;;;1450894;41;7220;-68
2021/07/08 03:59:31;;;;;;;;;;;;;;;;;;1450475;41;7040;-69
2021/07/08 04:00:35;;;;;;;;;;;;;;;;;;1451061;41;7040;-68
2021/07/08 04:01:39;;;;;;;;;;;;;;;;;;1450822;41;7017;-68
2021/07/08 04:02:41;;;;;;;;;;;;;;;;;;1451178;41;7052;-68
2021/07/08 04:03:44;;;;;;;;;;;;;;;;;;1450950;41;7000;-68
2021/07/08 04:04:46;;;;;;;;;;;;;;;;;;1450893;41;7000;-68
2021/07/08 04:05:49;;;;;;;;;;;;;;;;;;1450455;41;7040;-68
2021/07/08 04:06:51;;;;;;;;;;;;;;;;;;1450577;41;7000;-68
2021/07/08 04:07:53;;;;;;;;;;;;;;;;;;1450662;41;7039;-67
2021/07/08 04:08:56;;;;;;;;;;;;;;;;;;1450692;41;7001;-67
2021/07/08 04:09:58;;;;;;;;;;;;;;;;;;1450992;41;7000;-67
2021/07/08 04:11:01;;;;;;;;;;;;;;;;;;1450869;41;6997;-68
2021/07/08 04:12:03;;;;;;;;;;;;;;;;;;1450384;41;7000;-68
2021/07/08 04:13:10;;;;;;;;;;;;;;;;;;1450661;41;7044;-68
2021/07/08 04:14:12;;;;;;;;;;;;;;;;;;1450469;41;6997;-68
2021/07/08 04:15:15;;;;;;;;;;;;;;;;;;1450522;41;7000;-68
2021/07/08 04:16:18;;;;;;;;;;;;;;;;;;1450566;41;7115;-68
2021/07/08 04:17:20;;;;;;;;;;;;;;;;;;1450737;41;7017;-68
2021/07/08 04:18:23;;;;;;;;;;;;;;;;;;1450698;41;7049;-68
2021/07/08 04:19:25;;;;;;;;;;;;;;;;;;1450270;41;7017;-69
2021/07/08 04:20:28;;;;;;;;;;;;;;;;;;1449971;41;7048;-67
2021/07/08 04:21:31;;;;;;;;;;;;;;;;;;1450541;41;7020;-68
2021/07/08 04:22:33;;;;;;;;;;;;;;;;;;1450159;41;7048;-68
2021/07/08 04:23:36;;;;;;;;;;;;;;;;;;1450154;40;7009;-68
2021/07/08 04:24:38;;;;;;;;;;;;;;;;;;1450069;41;7040;-68
2021/07/08 04:25:41;;;;;;;;;;;;;;;;;;1450275;41;7036;-68
2021/07/08 04:26:43;;;;;;;;;;;;;;;;;;1450485;41;7009;-67
2021/07/08 04:27:46;;;;;;;;;;;;;;;;;;1450624;41;7008;-68
2021/07/08 04:28:49;;;;;;;;;;;;;;;;;;1445997;41;7004;-68
2021/07/08 04:29:51;;;;;;;;;;;;;;;;;;1445898;41;7036;-68
2021/07/08 04:30:54;;;;;;;;;;;;;;;;;;1450037;41;7013;-67
2021/07/08 04:31:56;;;;;;;;;;;;;;;;;;1450297;41;7201;-68
2021/07/08 04:32:59;;;;;;;;;;;;;;;;;;1449701;41;7004;-68
2021/07/08 04:34:01;;;;;;;;;;;;;;;;;;1450068;41;7000;-68
2021/07/08 04:35:04;;;;;;;;;;;;;;;;;;1449838;41;7001;-68
2021/07/08 04:36:06;;;;;;;;;;;;;;;;;;1450241;41;7036;-68
2021/07/08 04:37:09;;;;;;;;;;;;;;;;;;1450097;41;7016;-68
2021/07/08 04:38:13;;;;;;;;;;;;;;;;;;1450346;41;7017;-68
2021/07/08 04:39:15;;;;;;;;;;;;;;;;;;1449738;41;7008;-68
2021/07/08 04:40:19;;;;;;;;;;;;;;;;;;1450036;41;7005;-68
2021/07/08 04:41:21;;;;;;;;;;;;;;;;;;1449695;41;7013;-67
2021/07/08 04:42:24;;;;;;;;;;;;;;;;;;1450922;41;7000;-68
2021/07/08 04:43:26;;;;;;;;;;;;;;;;;;1450703;41;6996;-68
2021/07/08 04:44:29;;;;;;;;;;;;;;;;;;1450724;41;7013;-68
2021/07/08 04:45:32;;;;;;;;;;;;;;;;;;1450393;41;7000;-68
2021/07/08 04:46:34;;;;;;;;;;;;;;;;;;1450661;41;7012;-68
2021/07/08 04:47:41;;;;;;;;;;;;;;;;;;1450611;41;7944;-68
2021/07/08 04:48:43;;;;;;;;;;;;;;;;;;1450452;41;7008;-68
2021/07/08 04:49:46;;;;;;;;;;;;;;;;;;1450129;41;7956;-68
2021/07/08 04:50:48;;;;;;;;;;;;;;;;;;1449951;41;7031;-68
2021/07/08 04:51:51;;;;;;;;;;;;;;;;;;1450705;41;8365;-69
2021/07/08 04:52:54;;;;;;;;;;;;;;;;;;1451047;41;7024;-69
2021/07/08 04:53:57;;;;;;;;;;;;;;;;;;1451070;41;7046;-69
2021/07/08 04:54:59;;;;;;;;;;;;;;;;;;1450442;41;7012;-68
2021/07/08 04:56:02;;;;;;;;;;;;;;;;;;1450303;41;7040;-68
2021/07/08 04:57:04;;;;;;;;;;;;;;;;;;1450397;41;7032;-68
2021/07/08 04:58:06;;;;;;;;;;;;;;;;;;1450717;41;7032;-67
2021/07/08 04:59:09;;;;;;;;;;;;;;;;;;1450811;41;7008;-68
2021/07/08 05:00:13;;;;;;;;;;;;;;;;;;1450842;41;7025;-68
2021/07/08 05:01:16;;;;;;;;;;;;;;;;;;1450732;41;7044;-68
2021/07/08 05:02:18;;;;;;;;;;;;;;;;;;1450513;41;7036;-68
2021/07/08 05:03:21;;;;;;;;;;;;;;;;;;1450423;41;7004;-68
2021/07/08 05:04:23;;;;;;;;;;;;;;;;;;1450373;41;7284;-68
2021/07/08 05:05:26;;;;;;;;;;;;;;;;;;1450584;41;7984;-67
2021/07/08 05:06:28;;;;;;;;;;;;;;;;;;1450465;41;7945;-67
2021/07/08 05:07:30;;;;;;;;;;;;;;;;;;1450875;41;7049;-68
2021/07/08 05:08:33;;;;;;;;;;;;;;;;;;1450809;41;7004;-68
2021/07/08 05:09:35;;;;;;;;;;;;;;;;;;1450704;41;7023;-68
2021/07/08 05:10:38;;;;;;;;;;;;;;;;;;1450627;41;7028;-68
2021/07/08 05:11:42;;;;;;;;;;;;;;;;;;1450339;41;7032;-68
2021/07/08 05:12:44;;;;;;;;;;;;;;;;;;1450676;41;7004;-68
2021/07/08 05:13:47;;;;;;;;;;;;;;;;;;1450906;41;7167;-68
2021/07/08 05:14:50;;;;;;;;;;;;;;;;;;1450907;41;7000;-68
2021/07/08 05:15:52;;;;;;;;;;;;;;;;;;1450409;41;7279;-68
2021/07/08 05:16:55;;;;;;;;;;;;;;;;;;1450620;41;7028;-68
2021/07/08 05:17:57;;;;;;;;;;;;;;;;;;1450562;41;7004;-68
2021/07/08 05:19:00;;;;;;;;;;;;;;;;;;1450411;41;7915;-68
2021/07/08 05:20:05;;;;;;;;;;;;;;;;;;1450880;41;7233;-67
2021/07/08 05:21:09;;;;;;;;;;;;;;;;;;1450329;41;7118;-68
2021/07/08 05:22:11;;;;;;;;;;;;;;;;;;1450407;41;7115;-68
2021/07/08 05:23:18;;;;;;;;;;;;;;;;;;1450276;41;7105;-68
2021/07/08 05:24:23;;;;;;;;;;;;;;;;;;1449882;41;7520;-69
2021/07/08 05:25:26;;;;;;;;;;;;;;;;;;1450400;41;7043;-68
2021/07/08 05:26:28;;;;;;;;;;;;;;;;;;1449971;41;7161;-68
2021/07/08 05:27:31;;;;;;;;;;;;;;;;;;1450276;41;7001;-68
2021/07/08 05:28:34;;;;;;;;;;;;;;;;;;1450293;41;7052;-68
2021/07/08 05:29:37;;;;;;;;;;;;;;;;;;1449633;41;7024;-68
2021/07/08 05:30:40;;;;;;;;;;;;;;;;;;1450169;41;7085;-68
2021/07/08 05:31:43;;;;;;;;;;;;;;;;;;1449964;41;7008;-68
2021/07/08 05:32:45;;;;;;;;;;;;;;;;;;1450323;41;7039;-68
2021/07/08 05:33:48;;;;;;;;;;;;;;;;;;1450202;41;7083;-67
2021/07/08 05:34:51;;;;;;;;;;;;;;;;;;1449885;40;7000;-67
2021/07/08 05:35:53;;;;;;;;;;;;;;;;;;1450757;41;7036;-68
2021/07/08 05:36:56;;;;;;;;;;;;;;;;;;1450549;41;7048;-68
2021/07/08 05:37:58;;;;;;;;;;;;;;;;;;1450472;41;7000;-68
2021/07/08 05:39:01;;;;;;;;;;;;;;;;;;1450012;41;7960;-68
2021/07/08 05:40:05;;;;;;;;;;;;;;;;;;1450082;41;7236;-67
2021/07/08 05:41:10;;;;;;;;;;;;;;;;;;1450482;41;7009;-68
2021/07/08 05:42:12;;;;;;;;;;;;;;;;;;1450460;41;7052;-69
2021/07/08 05:43:15;;;;;;;;;;;;;;;;;;1450690;41;7004;-68
2021/07/08 05:44:17;;;;;;;;;;;;;;;;;;1450441;41;7965;-68
2021/07/08 05:45:20;;;;;;;;;;;;;;;;;;1450953;41;7000;-68
2021/07/08 05:46:23;;;;;;;;;;;;;;;;;;1450704;41;7028;-68
2021/07/08 05:47:25;;;;;;;;;;;;;;;;;;1450291;41;7031;-67
2021/07/08 05:48:30;;;;;;;;;;;;;;;;;;1451078;41;7183;-68
2021/07/08 05:49:32;;;;;;;;;;;;;;;;;;1450269;41;7013;-69
2021/07/08 05:50:35;;;;;;;;;;;;;;;;;;1450391;41;7013;-68
2021/07/08 05:51:37;;;;;;;;;;;;;;;;;;1450349;41;7009;-68
2021/07/08 05:52:39;;;;;;;;;;;;;;;;;;1450695;41;7004;-68
2021/07/08 05:53:42;;;;;;;;;;;;;;;;;;1450496;41;7106;-68
2021/07/08 05:54:44;;;;;;;;;;;;;;;;;;1450588;41;7118;-69
2021/07/08 05:55:46;;;;;;;;;;;;;;;;;;1450286;41;7021;-68
2021/07/08 05:56:49;;;;;;;;;;;;;;;;;;1449904;40;7040;-68
2021/07/08 05:57:51;;;;;;;;;;;;;;;;;;1450368;41;7021;-67
2021/07/08 05:58:55;;;;;;;;;;;;;;;;;;1450432;41;7053;-68
2021/07/08 05:59:57;;;;;;;;;;;;;;;;;;1450444;41;7008;-68
2021/07/08 06:01:00;;;;;;;;;;;;;;;;;;1450611;41;7040;-68
2021/07/08 06:02:07;;;;;;;;;;;;;;;;;;1450513;41;7039;-68
2021/07/08 06:03:10;;;;;;;;;;;;;;;;;;1450289;41;7001;-68
2021/07/08 06:04:13;;;;;;;;;;;;;;;;;;1450419;41;7040;-69
2021/07/08 06:05:15;;;;;;;;;;;;;;;;;;1450702;41;7036;-68
2021/07/08 06:06:18;;;;;;;;;;;;;;;;;;1450472;41;7121;-69
2021/07/08 06:07:20;;;;;;;;;;;;;;;;;;1450095;41;7199;-68
2021/07/08 06:08:23;;;;;;;;;;;;;;;;;;1449826;40;7004;-68
2021/07/08 06:09:25;;;;;;;;;;;;;;;;;;1449550;41;7986;-68
2021/07/08 06:10:28;;;;;;;;;;;;;;;;;;1449909;41;7036;-69
2021/07/08 06:11:30;;;;;;;;;;;;;;;;;;1450368;41;7036;-68
2021/07/08 06:12:33;;;;;;;;;;;;;;;;;;1450191;41;7011;-68
2021/07/08 06:13:36;;;;;;;;;;;;;;;;;;1450438;41;7032;-68
2021/07/08 06:14:38;;;;;;;;;;;;;;;;;;1449814;41;7040;-68
2021/07/08 06:15:40;;;;;;;;;;;;;;;;;;1449900;41;7040;-68
2021/07/08 06:16:43;;;;;;;;;;;;;;;;;;1449549;41;7036;-67
2021/07/08 06:17:45;;;;;;;;;;;;;;;;;;1449613;41;7009;-67
2021/07/08 06:18:48;;;;;;;;;;;;;;;;;;1450515;41;7009;-68
2021/07/08 06:19:50;;;;;;;;;;;;;;;;;;1450281;41;7009;-68
2021/07/08 06:20:53;;;;;;;;;;;;;;;;;;1449679;41;7016;-68
2021/07/08 06:21:55;;;;;;;;;;;;;;;;;;1449757;41;7232;-68
2021/07/08 06:22:58;;;;;;;;;;;;;;;;;;1449941;41;7001;-68
2021/07/08 06:24:00;;;;;;;;;;;;;;;;;;1450112;41;7012;-68
2021/07/08 06:25:03;;;;;;;;;;;;;;;;;;1450341;41;7008;-67
2021/07/08 06:26:06;;;;;;;;;;;;;;;;;;1449476;41;7024;-68
2021/07/08 06:27:08;;;;;;;;;;;;;;;;;;1449921;41;7224;-68
2021/07/08 06:28:10;;;;;;;;;;;;;;;;;;1449583;41;7016;-68
2021/07/08 06:29:13;;;;;;;;;;;;;;;;;;1449576;41;7000;-68
2021/07/08 06:30:16;;;;;;;;;;;;;;;;;;1449241;41;7039;-68
2021/07/08 06:31:18;;;;;;;;;;;;;;;;;;1450141;41;7036;-67
2021/07/08 06:32:21;;;;;;;;;;;;;;;;;;1450490;41;7110;-68
2021/07/08 06:33:23;;;;;;;;;;;;;;;;;;1450524;41;8036;-67
2021/07/08 06:34:25;;;;;;;;;;;;;;;;;;1449886;41;7000;-68
2021/07/08 06:35:28;;;;;;;;;;;;;;;;;;1449873;41;7108;-68
2021/07/08 06:36:30;;;;;;;;;;;;;;;;;;1450167;41;7040;-68
2021/07/08 06:37:33;;;;;;;;;;;;;;;;;;1450909;41;7004;-67
2021/07/08 06:38:35;;;;;;;;;;;;;;;;;;1449330;41;6996;-68
2021/07/08 06:39:38;;;;;;;;;;;;;;;;;;1449001;41;7213;-68
2021/07/08 06:40:40;;;;;;;;;;;;;;;;;;1450611;41;7009;-68
2021/07/08 06:41:43;;;;;;;;;;;;;;;;;;1450129;41;7025;-68
2021/07/08 06:42:46;;;;;;;;;;;;;;;;;;1450404;41;7004;-68
2021/07/08 06:43:49;;;;;;;;;;;;;;;;;;1450220;41;7036;-67
2021/07/08 06:44:52;;;;;;;;;;;;;;;;;;1450471;41;7149;-68
2021/07/08 06:45:54;;;;;;;;;;;;;;;;;;1450004;40;7017;-68
2021/07/08 06:46:57;;;;;;;;;;;;;;;;;;1450374;41;7008;-67
2021/07/08 06:48:02;;;;;;;;;;;;;;;;;;1450941;41;7040;-68
2021/07/08 06:49:08;;;;;;;;;;;;;;;;;;1451090;41;7079;-68
2021/07/08 06:50:10;;;;;;;;;;;;;;;;;;1450979;41;7008;-68
2021/07/08 06:51:13;;;;;;;;;;;;;;;;;;1450662;41;7004;-68
2021/07/08 06:52:16;;;;;;;;;;;;;;;;;;1451019;41;7005;-68
2021/07/08 06:53:18;;;;;;;;;;;;;;;;;;1450713;41;7000;-68
2021/07/08 06:54:21;;;;;;;;;;;;;;;;;;1450626;41;7001;-68
2021/07/08 06:55:23;;;;;;;;;;;;;;;;;;1450343;41;7024;-67
2021/07/08 06:56:26;;;;;;;;;;;;;;;;;;1451063;41;7020;-67
2021/07/08 06:57:28;;;;;;;;;;;;;;;;;;1450543;41;7981;-67
2021/07/08 06:58:30;;;;;;;;;;;;;;;;;;1451093;41;7008;-68
2021/07/08 06:59:33;;;;;;;;;;;;;;;;;;1450929;41;7004;-67
2021/07/08 07:00:38;;;;;;;;;;;;;;;;;;1451288;41;7008;-68
2021/07/08 07:01:41;;;;;;;;;;;;;;;;;;1450727;41;7040;-68
2021/07/08 07:02:43;;;;;;;;;;;;;;;;;;1451083;41;7000;-68
2021/07/08 07:03:46;;;;;;;;;;;;;;;;;;1451139;41;7036;-68
2021/07/08 07:04:48;;;;;;;;;;;;;;;;;;1450970;41;7001;-67
2021/07/08 07:05:50;;;;;;;;;;;;;;;;;;1450947;41;7044;-67
2021/07/08 07:06:53;;;;;;;;;;;;;;;;;;1450623;41;7008;-68
2021/07/08 07:07:56;;;;;;;;;;;;;;;;;;1450744;41;7037;-68
2021/07/08 07:08:59;;;;;;;;;;;;;;;;;;1450923;41;7000;-68
2021/07/08 07:10:01;;;;;;;;;;;;;;;;;;1451023;41;7035;-68
2021/07/08 07:11:03;;;;;;;;;;;;;;;;;;1450670;41;7116;-68
2021/07/08 07:12:06;;;;;;;;;;;;;;;;;;1450226;41;7010;-68
2021/07/08 07:13:10;;;;;;;;;;;;;;;;;;1451062;41;7001;-68
2021/07/08 07:14:13;;;;;;;;;;;;;;;;;;1451013;41;7020;-68
2021/07/08 07:15:16;;;;;;;;;;;;;;;;;;1450628;41;7217;-68
2021/07/08 07:16:19;;;;;;;;;;;;;;;;;;1450503;41;7000;-68
2021/07/08 07:17:22;;;;;;;;;;;;;;;;;;1450605;41;7010;-68